sensor_id;sensor_type;location;lat;lon;timestamp;pressure;altitude;pressure_sealevel;temperature;humidity
53960;BME280;39866;48.638;-2.020;2023-12-20T00:00:04;102474.19;;;13.69;100.00
53960;BME280;39866;48.638;-2.020;2023-12-20T00:02:29;102475.19;;;13.59;100.00
53960;BME280;39866;48.638;-2.020;2023-12-20T00:04:54;102478.13;;;13.41;100.00
53960;BME280;39866;48.638;-2.020;2023-12-20T00:07:20;102486.94;;;13.49;100.00
53960;BME280;39866;48.638;-2.020;2023-12-20T00:09:45;102482.56;;;13.43;100.00
53960;BME280;39866;48.638;-2.020;2023-12-20T00:12:10;102480.06;;;13.28;100.00
53960;BME280;39866;48.638;-2.020;2023-12-20T00:14:35;102483.47;;;13.41;100.00
53960;BME280;39866;48.638;-2.020;2023-12-20T00:17:01;102488.72;;;13.50;100.00
53960;BME280;39866;48.638;-2.020;2023-12-20T00:19:26;102485.38;;;13.97;100.00
53960;BME280;39866;48.638;-2.020;2023-12-20T00:21:51;102495.19;;;13.97;100.00
53960;BME280;39866;48.638;-2.020;2023-12-20T00:24:16;102492.31;;;14.10;100.00
53960;BME280;39866;48.638;-2.020;2023-12-20T00:26:42;102480.75;;;14.07;100.00
53960;BME280;39866;48.638;-2.020;2023-12-20T00:29:07;102487.50;;;13.74;100.00
53960;BME280;39866;48.638;-2.020;2023-12-20T00:31:32;102496.44;;;13.73;100.00
53960;BME280;39866;48.638;-2.020;2023-12-20T00:33:58;102492.97;;;13.65;100.00
53960;BME280;39866;48.638;-2.020;2023-12-20T00:36:23;102494.19;;;14.05;100.00
53960;BME280;39866;48.638;-2.020;2023-12-20T00:38:48;102496.25;;;13.85;100.00
53960;BME280;39866;48.638;-2.020;2023-12-20T00:41:13;102496.19;;;13.90;100.00
53960;BME280;39866;48.638;-2.020;2023-12-20T00:43:38;102505.66;;;14.12;100.00
53960;BME280;39866;48.638;-2.020;2023-12-20T00:46:03;102499.94;;;13.78;100.00
53960;BME280;39866;48.638;-2.020;2023-12-20T00:48:29;102497.31;;;13.73;100.00
53960;BME280;39866;48.638;-2.020;2023-12-20T00:50:56;102499.47;;;13.45;100.00
53960;BME280;39866;48.638;-2.020;2023-12-20T00:53:21;102498.03;;;13.86;100.00
53960;BME280;39866;48.638;-2.020;2023-12-20T00:55:46;102488.81;;;14.05;100.00
53960;BME280;39866;48.638;-2.020;2023-12-20T00:58:12;102494.88;;;14.18;100.00
53960;BME280;39866;48.638;-2.020;2023-12-20T01:00:37;102493.28;;;14.05;100.00
53960;BME280;39866;48.638;-2.020;2023-12-20T01:03:03;102495.75;;;14.19;100.00
53960;BME280;39866;48.638;-2.020;2023-12-20T01:05:28;102506.38;;;14.25;100.00
53960;BME280;39866;48.638;-2.020;2023-12-20T01:07:53;102509.91;;;14.27;100.00
53960;BME280;39866;48.638;-2.020;2023-12-20T01:10:19;102496.81;;;14.07;100.00
53960;BME280;39866;48.638;-2.020;2023-12-20T01:12:44;102501.28;;;14.06;100.00
53960;BME280;39866;48.638;-2.020;2023-12-20T01:15:09;102495.97;;;14.05;100.00
53960;BME280;39866;48.638;-2.020;2023-12-20T01:17:35;102505.63;;;14.17;100.00
53960;BME280;39866;48.638;-2.020;2023-12-20T01:20:00;102519.38;;;13.92;100.00
53960;BME280;39866;48.638;-2.020;2023-12-20T01:22:26;102526.41;;;13.98;100.00
53960;BME280;39866;48.638;-2.020;2023-12-20T01:24:51;102522.94;;;13.93;100.00
53960;BME280;39866;48.638;-2.020;2023-12-20T01:27:16;102531.84;;;13.93;100.00
53960;BME280;39866;48.638;-2.020;2023-12-20T01:29:41;102526.56;;;13.88;100.00
53960;BME280;39866;48.638;-2.020;2023-12-20T01:32:07;102525.09;;;13.63;100.00
53960;BME280;39866;48.638;-2.020;2023-12-20T01:34:32;102524.66;;;13.95;100.00
53960;BME280;39866;48.638;-2.020;2023-12-20T01:36:57;102520.25;;;13.93;100.00
53960;BME280;39866;48.638;-2.020;2023-12-20T01:39:22;102513.41;;;13.70;100.00
53960;BME280;39866;48.638;-2.020;2023-12-20T01:41:48;102522.16;;;13.83;100.00
53960;BME280;39866;48.638;-2.020;2023-12-20T01:44:13;102526.63;;;13.84;100.00
53960;BME280;39866;48.638;-2.020;2023-12-20T01:46:38;102516.84;;;13.81;100.00
53960;BME280;39866;48.638;-2.020;2023-12-20T01:49:04;102533.78;;;13.82;100.00
53960;BME280;39866;48.638;-2.020;2023-12-20T01:51:29;102540.03;;;13.82;100.00
53960;BME280;39866;48.638;-2.020;2023-12-20T01:53:55;102533.63;;;13.94;100.00
53960;BME280;39866;48.638;-2.020;2023-12-20T01:56:22;102536.22;;;13.99;100.00
53960;BME280;39866;48.638;-2.020;2023-12-20T01:58:47;102535.13;;;14.12;100.00
53960;BME280;39866;48.638;-2.020;2023-12-20T02:01:13;102521.97;;;13.97;100.00
53960;BME280;39866;48.638;-2.020;2023-12-20T02:03:40;102524.41;;;14.12;100.00
53960;BME280;39866;48.638;-2.020;2023-12-20T02:06:05;102525.44;;;14.05;100.00
53960;BME280;39866;48.638;-2.020;2023-12-20T02:08:31;102521.13;;;13.93;100.00
53960;BME280;39866;48.638;-2.020;2023-12-20T02:10:56;102501.97;;;13.60;100.00
53960;BME280;39866;48.638;-2.020;2023-12-20T02:13:21;102507.78;;;13.90;100.00
53960;BME280;39866;48.638;-2.020;2023-12-20T02:15:46;102508.53;;;14.01;100.00
53960;BME280;39866;48.638;-2.020;2023-12-20T02:18:12;102506.53;;;14.14;100.00
53960;BME280;39866;48.638;-2.020;2023-12-20T02:20:40;102508.84;;;13.78;100.00
53960;BME280;39866;48.638;-2.020;2023-12-20T02:23:05;102506.84;;;13.94;100.00
53960;BME280;39866;48.638;-2.020;2023-12-20T02:25:31;102500.38;;;14.09;100.00
53960;BME280;39866;48.638;-2.020;2023-12-20T02:27:56;102497.03;;;13.92;100.00
53960;BME280;39866;48.638;-2.020;2023-12-20T02:30:21;102502.47;;;13.88;100.00
53960;BME280;39866;48.638;-2.020;2023-12-20T02:32:47;102498.84;;;13.91;100.00
53960;BME280;39866;48.638;-2.020;2023-12-20T02:35:12;102505.28;;;13.78;100.00
53960;BME280;39866;48.638;-2.020;2023-12-20T02:37:37;102503.66;;;13.68;100.00
53960;BME280;39866;48.638;-2.020;2023-12-20T02:40:03;102509.00;;;13.66;100.00
53960;BME280;39866;48.638;-2.020;2023-12-20T02:42:29;102510.78;;;13.69;100.00
53960;BME280;39866;48.638;-2.020;2023-12-20T02:44:54;102504.38;;;13.80;100.00
53960;BME280;39866;48.638;-2.020;2023-12-20T02:47:19;102503.69;;;13.65;100.00
53960;BME280;39866;48.638;-2.020;2023-12-20T02:49:45;102513.00;;;14.01;100.00
53960;BME280;39866;48.638;-2.020;2023-12-20T02:52:10;102519.75;;;14.26;100.00
53960;BME280;39866;48.638;-2.020;2023-12-20T02:54:35;102516.94;;;14.32;100.00
53960;BME280;39866;48.638;-2.020;2023-12-20T02:57:00;102506.69;;;14.03;100.00
53960;BME280;39866;48.638;-2.020;2023-12-20T02:59:26;102513.41;;;13.72;100.00
53960;BME280;39866;48.638;-2.020;2023-12-20T03:01:51;102523.47;;;13.53;100.00
53960;BME280;39866;48.638;-2.020;2023-12-20T03:04:16;102525.53;;;13.96;100.00
53960;BME280;39866;48.638;-2.020;2023-12-20T03:06:41;102526.38;;;14.01;100.00
53960;BME280;39866;48.638;-2.020;2023-12-20T03:09:06;102538.56;;;14.20;100.00
53960;BME280;39866;48.638;-2.020;2023-12-20T03:11:32;102538.75;;;14.08;100.00
53960;BME280;39866;48.638;-2.020;2023-12-20T03:13:57;102536.22;;;13.99;100.00
53960;BME280;39866;48.638;-2.020;2023-12-20T03:16:23;102530.97;;;13.91;100.00
53960;BME280;39866;48.638;-2.020;2023-12-20T03:18:48;102526.56;;;13.88;100.00
53960;BME280;39866;48.638;-2.020;2023-12-20T03:21:13;102531.72;;;14.02;100.00
53960;BME280;39866;48.638;-2.020;2023-12-20T03:23:39;102514.94;;;13.90;100.00
53960;BME280;39866;48.638;-2.020;2023-12-20T03:26:06;102516.53;;;14.03;100.00
53960;BME280;39866;48.638;-2.020;2023-12-20T03:28:32;102505.91;;;13.97;100.00
53960;BME280;39866;48.638;-2.020;2023-12-20T03:30:57;102514.66;;;14.08;100.00
53960;BME280;39866;48.638;-2.020;2023-12-20T03:33:22;102510.97;;;14.15;100.00
53960;BME280;39866;48.638;-2.020;2023-12-20T03:35:47;102514.06;;;13.89;100.00
53960;BME280;39866;48.638;-2.020;2023-12-20T03:38:12;102510.81;;;14.24;100.00
53960;BME280;39866;48.638;-2.020;2023-12-20T03:40:38;102506.84;;;13.94;100.00
53960;BME280;39866;48.638;-2.020;2023-12-20T03:43:03;102508.47;;;14.04;100.00
53960;BME280;39866;48.638;-2.020;2023-12-20T03:45:28;102511.16;;;14.03;100.00
53960;BME280;39866;48.638;-2.020;2023-12-20T03:47:53;102510.50;;;13.88;100.00
53960;BME280;39866;48.638;-2.020;2023-12-20T03:50:23;102511.38;;;13.87;100.00
53960;BME280;39866;48.638;-2.020;2023-12-20T03:52:48;102507.88;;;13.82;100.00
53960;BME280;39866;48.638;-2.020;2023-12-20T03:55:14;102512.41;;;13.79;100.00
53960;BME280;39866;48.638;-2.020;2023-12-20T03:57:39;102511.63;;;13.72;100.00
53960;BME280;39866;48.638;-2.020;2023-12-20T04:00:05;102510.78;;;13.67;100.00
53960;BME280;39866;48.638;-2.020;2023-12-20T04:02:34;102512.56;;;13.67;100.00
53960;BME280;39866;48.638;-2.020;2023-12-20T04:04:59;102510.28;;;13.39;100.00
53960;BME280;39866;48.638;-2.020;2023-12-20T04:07:24;102512.94;;;13.39;100.00
53960;BME280;39866;48.638;-2.020;2023-12-20T04:09:50;102508.34;;;13.49;100.00
53960;BME280;39866;48.638;-2.020;2023-12-20T04:12:15;102518.06;;;13.57;100.00
53960;BME280;39866;48.638;-2.020;2023-12-20T04:14:40;102503.03;;;13.46;100.00
53960;BME280;39866;48.638;-2.020;2023-12-20T04:17:05;102535.03;;;13.55;100.00
53960;BME280;39866;48.638;-2.020;2023-12-20T04:19:30;102534.47;;;13.98;100.00
53960;BME280;39866;48.638;-2.020;2023-12-20T04:21:56;102530.66;;;14.14;100.00
53960;BME280;39866;48.638;-2.020;2023-12-20T04:24:21;102515.97;;;13.81;100.00
53960;BME280;39866;48.638;-2.020;2023-12-20T04:26:47;102516.22;;;13.61;100.00
53960;BME280;39866;48.638;-2.020;2023-12-20T04:29:12;102523.22;;;13.73;100.00
53960;BME280;39866;48.638;-2.020;2023-12-20T04:31:37;102520.81;;;13.51;100.00
53960;BME280;39866;48.638;-2.020;2023-12-20T04:34:02;102524.38;;;13.52;100.00
53960;BME280;39866;48.638;-2.020;2023-12-20T04:36:28;102533.44;;;13.38;100.00
53960;BME280;39866;48.638;-2.020;2023-12-20T04:38:55;102531.53;;;13.51;100.00
53960;BME280;39866;48.638;-2.020;2023-12-20T04:41:20;102525.84;;;13.74;100.00
53960;BME280;39866;48.638;-2.020;2023-12-20T04:43:45;102533.03;;;13.72;100.00
53960;BME280;39866;48.638;-2.020;2023-12-20T04:46:10;102523.16;;;13.76;100.00
53960;BME280;39866;48.638;-2.020;2023-12-20T04:48:36;102516.88;;;13.80;100.00
53960;BME280;39866;48.638;-2.020;2023-12-20T04:51:01;102519.13;;;13.44;100.00
53960;BME280;39866;48.638;-2.020;2023-12-20T04:53:26;102533.25;;;13.54;100.00
53960;BME280;39866;48.638;-2.020;2023-12-20T04:55:52;102527.00;;;13.55;100.00
53960;BME280;39866;48.638;-2.020;2023-12-20T04:58:17;102529.84;;;13.41;100.00
53960;BME280;39866;48.638;-2.020;2023-12-20T05:00:43;102525.97;;;13.65;100.00
53960;BME280;39866;48.638;-2.020;2023-12-20T05:03:08;102528.00;;;13.46;100.00
53960;BME280;39866;48.638;-2.020;2023-12-20T05:05:34;102527.34;;;13.27;100.00
53960;BME280;39866;48.638;-2.020;2023-12-20T05:08:00;102512.72;;;13.56;100.00
53960;BME280;39866;48.638;-2.020;2023-12-20T05:10:25;102534.78;;;13.73;100.00
53960;BME280;39866;48.638;-2.020;2023-12-20T05:12:52;102519.81;;;14.20;100.00
53960;BME280;39866;48.638;-2.020;2023-12-20T05:15:17;102522.50;;;13.58;100.00
53960;BME280;39866;48.638;-2.020;2023-12-20T05:17:42;102534.06;;;13.59;100.00
53960;BME280;39866;48.638;-2.020;2023-12-20T05:20:07;102534.31;;;14.07;100.00
53960;BME280;39866;48.638;-2.020;2023-12-20T05:22:33;102529.53;;;14.27;100.00
53960;BME280;39866;48.638;-2.020;2023-12-20T05:24:58;102550.41;;;14.04;100.00
53960;BME280;39866;48.638;-2.020;2023-12-20T05:27:23;102540.06;;;13.79;100.00
53960;BME280;39866;48.638;-2.020;2023-12-20T05:29:48;102533.81;;;13.80;100.00
53960;BME280;39866;48.638;-2.020;2023-12-20T05:32:15;102528.72;;;13.59;100.00
53960;BME280;39866;48.638;-2.020;2023-12-20T05:34:40;102536.50;;;13.80;100.00
53960;BME280;39866;48.638;-2.020;2023-12-20T05:37:05;102522.59;;;13.51;100.00
53960;BME280;39866;48.638;-2.020;2023-12-20T05:39:30;102526.03;;;13.60;100.00
53960;BME280;39866;48.638;-2.020;2023-12-20T05:41:56;102530.09;;;13.92;100.00
53960;BME280;39866;48.638;-2.020;2023-12-20T05:44:21;102527.41;;;13.91;100.00
53960;BME280;39866;48.638;-2.020;2023-12-20T05:46:46;102520.44;;;13.79;100.00
53960;BME280;39866;48.638;-2.020;2023-12-20T05:49:11;102523.81;;;13.92;100.00
53960;BME280;39866;48.638;-2.020;2023-12-20T05:51:37;102527.84;;;14.22;100.00
53960;BME280;39866;48.638;-2.020;2023-12-20T05:54:02;102532.44;;;14.12;100.00
53960;BME280;39866;48.638;-2.020;2023-12-20T05:56:27;102540.91;;;13.83;100.00
53960;BME280;39866;48.638;-2.020;2023-12-20T05:58:52;102542.88;;;13.67;100.00
53960;BME280;39866;48.638;-2.020;2023-12-20T06:01:18;102545.34;;;13.85;100.00
53960;BME280;39866;48.638;-2.020;2023-12-20T06:03:43;102534.53;;;13.92;100.00
53960;BME280;39866;48.638;-2.020;2023-12-20T06:06:08;102547.28;;;13.74;100.00
53960;BME280;39866;48.638;-2.020;2023-12-20T06:08:34;102559.69;;;13.81;100.00
53960;BME280;39866;48.638;-2.020;2023-12-20T06:10:59;102558.41;;;14.08;100.00
53960;BME280;39866;48.638;-2.020;2023-12-20T06:13:24;102555.94;;;13.92;100.00
53960;BME280;39866;48.638;-2.020;2023-12-20T06:15:49;102563.16;;;13.88;100.00
53960;BME280;39866;48.638;-2.020;2023-12-20T06:18:15;102557.66;;;13.99;100.00
53960;BME280;39866;48.638;-2.020;2023-12-20T06:20:40;102560.19;;;14.08;100.00
53960;BME280;39866;48.638;-2.020;2023-12-20T06:23:05;102577.03;;;14.16;100.00
53960;BME280;39866;48.638;-2.020;2023-12-20T06:25:30;102565.19;;;14.34;100.00
53960;BME280;39866;48.638;-2.020;2023-12-20T06:27:55;102569.63;;;14.35;100.00
53960;BME280;39866;48.638;-2.020;2023-12-20T06:30:21;102557.94;;;14.39;100.00
53960;BME280;39866;48.638;-2.020;2023-12-20T06:32:46;102568.78;;;14.33;100.00
53960;BME280;39866;48.638;-2.020;2023-12-20T06:35:12;102573.97;;;14.42;100.00
53960;BME280;39866;48.638;-2.020;2023-12-20T06:37:37;102583.78;;;14.43;100.00
53960;BME280;39866;48.638;-2.020;2023-12-20T06:40:07;102592.66;;;14.47;100.00
53960;BME280;39866;48.638;-2.020;2023-12-20T06:42:32;102584.63;;;14.47;100.00
53960;BME280;39866;48.638;-2.020;2023-12-20T06:44:58;102584.94;;;14.27;100.00
53960;BME280;39866;48.638;-2.020;2023-12-20T06:47:23;102584.34;;;14.05;100.00
53960;BME280;39866;48.638;-2.020;2023-12-20T06:49:48;102587.28;;;13.88;100.00
53960;BME280;39866;48.638;-2.020;2023-12-20T06:52:13;102589.47;;;13.51;100.00
53960;BME280;39866;48.638;-2.020;2023-12-20T06:54:38;102592.00;;;13.65;100.00
53960;BME280;39866;48.638;-2.020;2023-12-20T06:57:04;102577.59;;;13.76;100.00
53960;BME280;39866;48.638;-2.020;2023-12-20T06:59:29;102576.78;;;13.70;100.00
53960;BME280;39866;48.638;-2.020;2023-12-20T07:01:54;102582.09;;;13.73;100.00
53960;BME280;39866;48.638;-2.020;2023-12-20T07:04:20;102581.78;;;13.97;100.00
53960;BME280;39866;48.638;-2.020;2023-12-20T07:06:46;102590.53;;;14.10;100.00
53960;BME280;39866;48.638;-2.020;2023-12-20T07:09:12;102590.31;;;14.24;100.00
53960;BME280;39866;48.638;-2.020;2023-12-20T07:11:38;102586.88;;;14.16;100.00
53960;BME280;39866;48.638;-2.020;2023-12-20T07:14:03;102602.94;;;14.17;100.00
53960;BME280;39866;48.638;-2.020;2023-12-20T07:16:28;102589.53;;;14.17;100.00
53960;BME280;39866;48.638;-2.020;2023-12-20T07:18:54;102583.41;;;14.07;100.00
53960;BME280;39866;48.638;-2.020;2023-12-20T07:21:19;102594.97;;;14.11;100.00
53960;BME280;39866;48.638;-2.020;2023-12-20T07:23:44;102592.50;;;13.97;100.00
53960;BME280;39866;48.638;-2.020;2023-12-20T07:26:10;102589.03;;;13.89;100.00
53960;BME280;39866;48.638;-2.020;2023-12-20T07:28:36;102573.97;;;13.80;100.00
53960;BME280;39866;48.638;-2.020;2023-12-20T07:31:01;102575.97;;;13.65;100.00
53960;BME280;39866;48.638;-2.020;2023-12-20T07:33:26;102569.69;;;13.66;100.00
53960;BME280;39866;48.638;-2.020;2023-12-20T07:35:52;102574.13;;;13.67;100.00
53960;BME280;39866;48.638;-2.020;2023-12-20T07:38:17;102572.31;;;13.70;100.00
53960;BME280;39866;48.638;-2.020;2023-12-20T07:40:42;102570.44;;;13.75;100.00
53960;BME280;39866;48.638;-2.020;2023-12-20T07:43:07;102576.66;;;13.80;100.00
53960;BME280;39866;48.638;-2.020;2023-12-20T07:45:33;102581.84;;;13.91;100.00
53960;BME280;39866;48.638;-2.020;2023-12-20T07:47:58;102585.44;;;13.90;100.00
53960;BME280;39866;48.638;-2.020;2023-12-20T07:50:23;102589.81;;;13.96;100.00
53960;BME280;39866;48.638;-2.020;2023-12-20T07:52:48;102578.06;;;14.07;100.00
53960;BME280;39866;48.638;-2.020;2023-12-20T07:55:13;102586.78;;;14.20;100.00
53960;BME280;39866;48.638;-2.020;2023-12-20T07:57:39;102576.94;;;14.25;100.00
53960;BME280;39866;48.638;-2.020;2023-12-20T08:00:04;102587.72;;;14.19;100.00
53960;BME280;39866;48.638;-2.020;2023-12-20T08:02:30;102585.88;;;14.23;100.00
53960;BME280;39866;48.638;-2.020;2023-12-20T08:04:55;102591.16;;;14.27;100.00
53960;BME280;39866;48.638;-2.020;2023-12-20T08:07:20;102585.81;;;14.27;100.00
53960;BME280;39866;48.638;-2.020;2023-12-20T08:09:46;102589.28;;;14.32;100.00
53960;BME280;39866;48.638;-2.020;2023-12-20T08:12:11;102586.78;;;14.22;100.00
53960;BME280;39866;48.638;-2.020;2023-12-20T08:14:36;102598.97;;;14.43;100.00
53960;BME280;39866;48.638;-2.020;2023-12-20T08:17:02;102596.41;;;14.35;100.00
53960;BME280;39866;48.638;-2.020;2023-12-20T08:19:27;102597.16;;;14.45;100.00
53960;BME280;39866;48.638;-2.020;2023-12-20T08:21:52;102592.81;;;14.36;100.00
53960;BME280;39866;48.638;-2.020;2023-12-20T08:24:18;102600.94;;;14.31;100.00
53960;BME280;39866;48.638;-2.020;2023-12-20T08:26:43;102598.19;;;14.36;100.00
53960;BME280;39866;48.638;-2.020;2023-12-20T08:29:08;102604.25;;;14.50;100.00
53960;BME280;39866;48.638;-2.020;2023-12-20T08:31:33;102612.31;;;14.49;100.00
53960;BME280;39866;48.638;-2.020;2023-12-20T08:33:59;102609.69;;;14.43;100.00
53960;BME280;39866;48.638;-2.020;2023-12-20T08:36:24;102601.66;;;14.43;100.00
53960;BME280;39866;48.638;-2.020;2023-12-20T08:38:49;102585.53;;;14.46;100.00
53960;BME280;39866;48.638;-2.020;2023-12-20T08:41:16;102592.94;;;14.28;100.00
53960;BME280;39866;48.638;-2.020;2023-12-20T08:43:41;102600.81;;;14.39;100.00
53960;BME280;39866;48.638;-2.020;2023-12-20T08:46:06;102592.53;;;14.57;100.00
53960;BME280;39866;48.638;-2.020;2023-12-20T08:48:31;102609.16;;;14.79;100.00
53960;BME280;39866;48.638;-2.020;2023-12-20T08:50:56;102605.63;;;14.76;100.00
53960;BME280;39866;48.638;-2.020;2023-12-20T08:53:22;102611.84;;;14.79;100.00
53960;BME280;39866;48.638;-2.020;2023-12-20T08:55:47;102602.50;;;14.49;100.00
53960;BME280;39866;48.638;-2.020;2023-12-20T08:58:12;102600.63;;;14.54;100.00
53960;BME280;39866;48.638;-2.020;2023-12-20T09:00:38;102598.06;;;14.45;100.00
53960;BME280;39866;48.638;-2.020;2023-12-20T09:03:03;102611.56;;;14.37;100.00
53960;BME280;39866;48.638;-2.020;2023-12-20T09:05:29;102597.41;;;14.28;100.00
53960;BME280;39866;48.638;-2.020;2023-12-20T09:07:55;102586.88;;;14.17;100.00
53960;BME280;39866;48.638;-2.020;2023-12-20T09:10:20;102573.38;;;14.23;100.00
53960;BME280;39866;48.638;-2.020;2023-12-20T09:12:47;102567.84;;;14.32;100.00
53960;BME280;39866;48.638;-2.020;2023-12-20T09:15:13;102572.34;;;14.32;100.00
53960;BME280;39866;48.638;-2.020;2023-12-20T09:17:38;102571.22;;;14.47;100.00
53960;BME280;39866;48.638;-2.020;2023-12-20T09:20:05;102588.31;;;14.40;100.00
53960;BME280;39866;48.638;-2.020;2023-12-20T09:22:32;102595.31;;;14.48;100.00
53960;BME280;39866;48.638;-2.020;2023-12-20T09:24:57;102610.41;;;14.57;100.00
53960;BME280;39866;48.638;-2.020;2023-12-20T09:27:22;102591.44;;;14.69;100.00
53960;BME280;39866;48.638;-2.020;2023-12-20T09:29:47;102608.34;;;14.74;100.00
53960;BME280;39866;48.638;-2.020;2023-12-20T09:32:13;102599.31;;;14.80;100.00
53960;BME280;39866;48.638;-2.020;2023-12-20T09:34:38;102609.16;;;14.79;100.00
53960;BME280;39866;48.638;-2.020;2023-12-20T09:37:04;102606.56;;;14.75;100.00
53960;BME280;39866;48.638;-2.020;2023-12-20T09:39:29;102613.84;;;14.65;100.00
53960;BME280;39866;48.638;-2.020;2023-12-20T09:44:21;102633.25;;;14.82;100.00
53960;BME280;39866;48.638;-2.020;2023-12-20T09:46:49;102629.81;;;14.74;100.00
53960;BME280;39866;48.638;-2.020;2023-12-20T09:49:15;102628.72;;;14.86;100.00
53960;BME280;39866;48.638;-2.020;2023-12-20T09:51:42;102629.50;;;14.93;100.00
53960;BME280;39866;48.638;-2.020;2023-12-20T09:54:07;102612.75;;;14.77;100.00
53960;BME280;39866;48.638;-2.020;2023-12-20T09:56:32;102621.00;;;14.66;100.00
53960;BME280;39866;48.638;-2.020;2023-12-20T09:58:59;102625.41;;;14.70;100.00
53960;BME280;39866;48.638;-2.020;2023-12-20T10:01:24;102612.88;;;14.71;100.00
53960;BME280;39866;48.638;-2.020;2023-12-20T10:03:53;102627.16;;;14.71;100.00
53960;BME280;39866;48.638;-2.020;2023-12-20T10:06:19;102614.63;;;14.72;100.00
53960;BME280;39866;48.638;-2.020;2023-12-20T10:08:44;102620.28;;;14.55;100.00
53960;BME280;39866;48.638;-2.020;2023-12-20T10:11:09;102609.47;;;14.59;100.00
53960;BME280;39866;48.638;-2.020;2023-12-20T10:13:38;102600.59;;;14.57;100.00
53960;BME280;39866;48.638;-2.020;2023-12-20T10:16:04;102616.66;;;14.56;100.00
53960;BME280;39866;48.638;-2.020;2023-12-20T10:18:29;102607.06;;;14.40;100.00
53960;BME280;39866;48.638;-2.020;2023-12-20T10:20:55;102626.13;;;14.18;100.00
53960;BME280;39866;48.638;-2.020;2023-12-20T10:23:20;102628.09;;;14.05;100.00
53960;BME280;39866;48.638;-2.020;2023-12-20T10:25:55;102629.25;;;13.84;100.00
53960;BME280;39866;48.638;-2.020;2023-12-20T10:28:20;102631.06;;;13.82;100.00
53960;BME280;39866;48.638;-2.020;2023-12-20T10:30:48;102623.03;;;13.79;100.00
53960;BME280;39866;48.638;-2.020;2023-12-20T10:33:13;102624.00;;;13.75;100.00
53960;BME280;39866;48.638;-2.020;2023-12-20T10:35:39;102623.06;;;13.78;100.00
53960;BME280;39866;48.638;-2.020;2023-12-20T10:38:04;102618.75;;;13.68;100.00
53960;BME280;39866;48.638;-2.020;2023-12-20T10:40:30;102622.25;;;13.71;100.00
53960;BME280;39866;48.638;-2.020;2023-12-20T10:42:56;102610.66;;;13.71;100.00
53960;BME280;39866;48.638;-2.020;2023-12-20T10:45:22;102608.06;;;13.63;100.00
53960;BME280;39866;48.638;-2.020;2023-12-20T10:47:47;102590.16;;;13.70;100.00
53960;BME280;39866;48.638;-2.020;2023-12-20T10:50:14;102596.28;;;13.81;100.00
53960;BME280;39866;48.638;-2.020;2023-12-20T10:52:39;102581.00;;;13.89;100.00
53960;BME280;39866;48.638;-2.020;2023-12-20T10:55:05;102589.91;;;13.90;100.00
53960;BME280;39866;48.638;-2.020;2023-12-20T10:57:30;102594.38;;;13.87;100.00
53960;BME280;39866;48.638;-2.020;2023-12-20T10:59:56;102583.72;;;13.86;100.00
53960;BME280;39866;48.638;-2.020;2023-12-20T11:02:25;102590.75;;;13.92;100.00
53960;BME280;39866;48.638;-2.020;2023-12-20T11:04:59;102589.16;;;13.78;100.00
53960;BME280;39866;48.638;-2.020;2023-12-20T11:10:00;102576.66;;;13.79;100.00
53960;BME280;39866;48.638;-2.020;2023-12-20T11:15:27;102561.31;;;13.92;100.00
53960;BME280;39866;48.638;-2.020;2023-12-20T11:17:57;102564.88;;;13.94;100.00
53960;BME280;39866;48.638;-2.020;2023-12-20T11:20:24;102562.09;;;14.00;100.00
53960;BME280;39866;48.638;-2.020;2023-12-20T11:22:52;102567.47;;;13.98;100.00
53960;BME280;39866;48.638;-2.020;2023-12-20T11:25:18;102570.03;;;14.09;100.00
53960;BME280;39866;48.638;-2.020;2023-12-20T11:27:43;102557.53;;;14.06;100.00
53960;BME280;39866;48.638;-2.020;2023-12-20T11:30:10;102557.44;;;14.14;100.00
53960;BME280;39866;48.638;-2.020;2023-12-20T11:32:35;102569.00;;;14.18;100.00
53960;BME280;39866;48.638;-2.020;2023-12-20T11:37:30;102567.44;;;14.00;100.00
53960;BME280;39866;48.638;-2.020;2023-12-20T11:40:02;102565.84;;;13.88;100.00
53960;BME280;39866;48.638;-2.020;2023-12-20T11:42:27;102554.22;;;13.87;100.00
53960;BME280;39866;48.638;-2.020;2023-12-20T11:44:53;102540.66;;;14.01;100.00
53960;BME280;39866;48.638;-2.020;2023-12-20T11:47:18;102535.44;;;13.92;100.00
53960;BME280;39866;48.638;-2.020;2023-12-20T11:49:44;102554.81;;;14.08;100.00
53960;BME280;39866;48.638;-2.020;2023-12-20T11:52:11;102551.19;;;14.13;100.00
53960;BME280;39866;48.638;-2.020;2023-12-20T11:54:36;102539.78;;;14.01;100.00
53960;BME280;39866;48.638;-2.020;2023-12-20T11:57:02;102534.53;;;13.92;100.00
53960;BME280;39866;48.638;-2.020;2023-12-20T11:59:27;102535.19;;;14.09;100.00
53960;BME280;39866;48.638;-2.020;2023-12-20T12:01:52;102525.38;;;14.08;100.00
53960;BME280;39866;48.638;-2.020;2023-12-20T12:04:18;102520.84;;;14.13;100.00
53960;BME280;39866;48.638;-2.020;2023-12-20T12:06:43;102514.94;;;13.90;100.00
53960;BME280;39866;48.638;-2.020;2023-12-20T12:09:09;102510.22;;;14.08;100.00
53960;BME280;39866;48.638;-2.020;2023-12-20T12:11:35;102502.13;;;14.10;100.00
53960;BME280;39866;48.638;-2.020;2023-12-20T12:14:00;102494.91;;;14.15;100.00
53960;BME280;39866;48.638;-2.020;2023-12-20T12:16:26;102486.88;;;14.17;100.00
53960;BME280;39866;48.638;-2.020;2023-12-20T12:18:55;102475.13;;;14.25;100.00
53960;BME280;39866;48.638;-2.020;2023-12-20T12:21:20;102487.94;;;14.05;100.00
53960;BME280;39866;48.638;-2.020;2023-12-20T12:23:45;102520.06;;;14.05;100.00
53960;BME280;39866;48.638;-2.020;2023-12-20T12:26:11;102502.94;;;14.17;100.00
53960;BME280;39866;48.638;-2.020;2023-12-20T12:28:36;102497.59;;;14.17;100.00
53960;BME280;39866;48.638;-2.020;2023-12-20T12:31:02;102490.31;;;14.23;100.00